WetterOnline ( https://www.wetteronline.de )

Wetter aktuell Dvur Kralove nad Labem

Aktuelles Wetter: Pardubice (230m)

6-stündlich | Neueste Meldungen
Ortszeit Temperatur Wetter
Di, 07.07. 20:00 18.1° C leicht bewölkt
Di, 07.07. 14:00 17.3° C bewölkt
Di, 07.07. 8:00 13.6° C leicht bewölkt
Di, 07.07. 2:00 13.9° C leicht bewölkt
Mo, 06.07. 20:00 19.8° C leicht bewölkt
Mo, 06.07. 14:00 18.3° C bewölkt
Mo, 06.07. 8:00 23.2° C leicht bewölkt
Mo, 06.07. 2:00 17.4° C wolkenlos
Ortszeit Temperatur Wetter
Di, 07.07. 21:30 15° C -
Di, 07.07. 21:00 15.2° C leicht bewölkt
Di, 07.07. 20:30 17° C -
Di, 07.07. 20:00 18.1° C leicht bewölkt
Di, 07.07. 19:30 19° C -
Di, 07.07. 19:00 18.7° C leicht bewölkt
Di, 07.07. 18:30 19° C -
Di, 07.07. 18:00 19.2° C leicht bewölkt
Ortszeit Relative Feuchte Sichtweite
Di, 07.07. 20:00 49% 20 km
Di, 07.07. 14:00 53% 20 km
Di, 07.07. 8:00 70% 20 km
Di, 07.07. 2:00 64% 20 km
Mo, 06.07. 20:00 42% 20 km
Mo, 06.07. 14:00 85% 20 km
Mo, 06.07. 8:00 66% 20 km
Mo, 06.07. 2:00 88% 20 km
Ortszeit Relative Feuchte Sichtweite
Di, 07.07. 21:30 72% >10 km
Di, 07.07. 21:00 76% 20 km
Di, 07.07. 20:30 63% >10 km
Di, 07.07. 20:00 49% 20 km
Di, 07.07. 19:30 43% >10 km
Di, 07.07. 19:00 46% 20 km
Di, 07.07. 18:30 46% >10 km
Di, 07.07. 18:00 46% 20 km
Ortszeit Niederschlagsmenge Niederschlagsart
Di, 07.07. 20:00 0.0 l/m2 in 12 Std. -
Di, 07.07. 14:00 0.0 l/m2 in 6 Std. -
Di, 07.07. 8:00 0.0 l/m2 in 12 Std. -
Di, 07.07. 2:00 0.0 l/m2 in 6 Std. -
Mo, 06.07. 20:00 0.7 l/m2 in 12 Std. -
Mo, 06.07. 14:00 0.7 l/m2 in 6 Std. Schauer
Mo, 06.07. 8:00 0.0 l/m2 in 12 Std. -
Mo, 06.07. 2:00 0.0 l/m2 in 6 Std. -
Ortszeit Niederschlagsmenge Niederschlagsart
Di, 07.07. 21:30 keine Meldung -
Di, 07.07. 21:00 0.0 l/m2 in 1 Std. -
Di, 07.07. 20:30 keine Meldung -
Di, 07.07. 20:00 0.0 l/m2 in 1 Std. -
Di, 07.07. 19:30 keine Meldung -
Di, 07.07. 19:00 0.0 l/m2 in 1 Std. -
Di, 07.07. 18:30 keine Meldung -
Di, 07.07. 18:00 0.0 l/m2 in 1 Std. -
Ortszeit Stärke Spitze Richtung
km/h Bft. km/h Grad Sektor
Di, 07.07. 20:00 7 2 - 260° W
Di, 07.07. 14:00 18 3 - 270° W
Di, 07.07. 8:00 22 4 - 290° W
Di, 07.07. 2:00 14 3 - 280° W
Mo, 06.07. 20:00 11 2 - 320° NW
Mo, 06.07. 14:00 11 2 47 230° SW
Mo, 06.07. 8:00 14 3 - 240° SW
Mo, 06.07. 2:00 0 0 - - -
Ortszeit Stärke Spitze Richtung
km/h Bft. km/h Grad Sektor
Di, 07.07. 21:30 0 0 - - -
Di, 07.07. 21:00 4 1 - 180° S
Di, 07.07. 20:30 6 1 - 220° SW
Di, 07.07. 20:00 7 2 - 260° W
Di, 07.07. 19:30 9 2 - 280° W
Di, 07.07. 19:00 11 2 - 270° W
Di, 07.07. 18:30 15 3 - 280° W
Di, 07.07. 18:00 11 2 - 300° NW
Ortszeit Untergrenze Bedeckung Gattung
total tief tief mittel hoch
Di, 07.07. 20:00 1500 m 3/8 1/8 Cu Ac -
Di, 07.07. 14:00 1110 m 7/8 4/8 Cu Ac -
Di, 07.07. 8:00 600 m 3/8 3/8 Cu - -
Di, 07.07. 2:00 2400 m 6/8 6/8 - Ac -
Mo, 06.07. 20:00 1500 m 4/8 2/8 Cu Ac -
Mo, 06.07. 14:00 990 m 7/8 5/8 Cu Ac -
Mo, 06.07. 8:00 2100 m 4/8 4/8 - Ac -
Mo, 06.07. 2:00 - 0/8 0/8 - - -
Ortszeit Bedeckungsgrad in Achtel und Wolkenuntergrenze
Di, 07.07. 21:30 keine Wolken(unter 1500 m)
Di, 07.07. 21:00 2(2400m)
Di, 07.07. 20:30 keine Wolken(unter 1500 m)
Di, 07.07. 20:00 1(1500m) 3(2400m)
Di, 07.07. 19:30 keine Wolken(unter 1500 m)
Di, 07.07. 19:00 2(1500m) 3(2400m)
Di, 07.07. 18:30 keine Wolken(unter 1500 m)
Di, 07.07. 18:00 3(1500m) 3(2400m)
Ortszeit Luftdruck NN (hPa) Tendenz (hPa in 3 Std.)
Di, 07.07. 20:00 1018 - 0,8
Di, 07.07. 14:00 1019 - 0,3
Di, 07.07. 8:00 1020 + 1,3
Di, 07.07. 2:00 1018 + 1,7
Mo, 06.07. 20:00 1012 + 1,8
Mo, 06.07. 14:00 1011 + 0,9
Mo, 06.07. 8:00 1010 - 0,5
Mo, 06.07. 2:00 1012 - 0,5
Ortszeit Luftdruck NN (hPa) Tendenz (hPa in 3 Std.)
Di, 07.07. 21:30 1017 keine Meldung
Di, 07.07. 21:00 1018 - 0,5
Di, 07.07. 20:30 1017 keine Meldung
Di, 07.07. 20:00 1018 - 0,8
Di, 07.07. 19:30 1018 keine Meldung
Di, 07.07. 19:00 1018 - 0,9
Di, 07.07. 18:30 1018 keine Meldung
Di, 07.07. 18:00 1018 - 1,1
Ortszeit Schneehöhe (cm)
Di, 07.07. 20:00 -
Di, 07.07. 14:00 -
Di, 07.07. 8:00 -
Di, 07.07. 2:00 -
Mo, 06.07. 20:00 -
Mo, 06.07. 14:00 -
Mo, 06.07. 8:00 0
Mo, 06.07. 2:00 -
Ortszeit Schneehöhe (cm)
Di, 07.07. 21:30 -
Di, 07.07. 21:00 -
Di, 07.07. 20:30 -
Di, 07.07. 20:00 -
Di, 07.07. 19:30 -
Di, 07.07. 19:00 -
Di, 07.07. 18:30 -
Di, 07.07. 18:00 -
Link zu dieser Seite / Seite empfehlen

Das Wetter in ...